الصفحة الرئيسية
METAR-TAF:

METAR-TAF

مطار :

Macas, الإكوادور

دائرة عرض: 02-17-57-S, خط طول: 078-07-15-W, ارتفاع: 1052 متر

مراقبة الطقس الحالي

تاريخ ووقت الإصدار 5ساعات و 1 دقيقة قبل الساعة 23:00UTC
ريح 5 عقدة من الشمال
درجة الحرارة 21°درجة مئوية
الرطوبة 88%
ضغط 1020 hPa
الرؤية 10 كم أو أكثر
غيوم متفرقة على ارتفاع 2600 قدم
غيوم مفككة على ارتفاع 10000 قدم

METAR: SEMC 152300Z 35005KT 9999 SCT026 BKN100 21/19 Q1020 RMK A3013

زمن: 23:01 (04:01 UTC)


TAF: مفقودة

أرصاد الطقس والتوقعات من أكثر من 4000 مطار (تقارير الطقس للمطار METAR والتنبؤ بالطقس بالمطارTAF).

المحطات المتاحة هي النقط الصفراء والحمراء على الخريطة.

حرك المؤشر فوق النقطة لمعرفة اسم المحطة.

ثم انقر لمعرفة أرصاد وتوقعات الطقس.

لتغيير الخارطة: اضغط على الأزرار الخضراء مع رمز الصليب الأسود للتكبير. على الزر الأخضر مع شرطة للتصغير، أو على الأسهم الخضراء للخرائط المجاورة.


METAR-TAF: